Time;durP1;ratioP1;P1;durP2;ratioP2;P2;SDS_P1;SDS_P2;PMS_P1;PMS_P2;Temp;Humidity;BMP_temperature;BMP_pressure;BME280_temperature;BME280_humidity;BME280_pressure;Samples;Min_cycle;Max_cycle;Signal;HPM_P1;HPM_P2
2022/06/18 00:00:22;;;;;;;;;11.00;11.00;;;;;31.54;30.82;101197.28;5015998;28;45807;-85
2022/06/18 00:02:47;;;;;;;;;15.50;15.00;;;;;31.51;31.18;101195.06;5048554;28;47335;-84
2022/06/18 00:05:17;;;;;;;;;13.25;13.25;;;;;31.48;30.65;101189.25;5028629;28;45627;-85
2022/06/18 00:07:52;;;;;;;;;14.00;13.75;;;;;31.42;31.05;101182.09;5014302;28;45596;-85
2022/06/18 00:13:42;;;;;;;;;13.75;13.50;;;;;31.34;31.39;101177.00;5014018;28;46105;-85
2022/06/18 00:16:21;;;;;;;;;12.75;12.75;;;;;31.31;30.89;101178.25;5014174;28;46233;-85
2022/06/18 00:18:47;;;;;;;;;14.50;14.00;;;;;31.25;31.11;101171.91;5014143;28;45640;-85
2022/06/18 00:21:17;;;;;;;;;13.50;12.50;;;;;31.26;31.46;101184.38;4996190;28;45989;-85
2022/06/18 00:23:42;;;;;;;;;13.75;13.75;;;;;31.23;31.50;101175.91;5013872;28;46509;-85
2022/06/18 00:26:09;;;;;;;;;14.00;13.75;;;;;31.19;31.52;101174.72;5013925;28;46336;-85
2022/06/18 00:28:35;;;;;;;;;12.00;12.00;;;;;31.14;31.54;101171.88;5013777;28;45625;-85
2022/06/18 00:31:00;;;;;;;;;11.00;11.00;;;;;31.12;31.67;101172.09;4996176;28;45774;-85
2022/06/18 00:33:26;;;;;;;;;11.50;10.75;;;;;31.08;31.75;101164.66;5028708;28;47360;-85
2022/06/18 00:35:56;;;;;;;;;11.00;11.00;;;;;31.05;31.63;101165.13;4995885;28;45730;-85
2022/06/18 00:38:31;;;;;;;;;12.25;11.75;;;;;31.05;31.95;101175.94;5028995;28;45691;-85
2022/06/18 00:40:58;;;;;;;;;11.00;11.00;;;;;31.01;31.90;101177.44;5014221;28;45456;-86
2022/06/18 00:43:36;;;;;;;;;13.00;12.50;;;;;31.01;32.01;101182.84;4996006;28;47349;-85
2022/06/18 00:46:15;;;;;;;;;11.00;11.00;;;;;30.93;32.22;101172.34;4995870;28;47106;-85
2022/06/18 00:48:50;;;;;;;;;11.00;11.00;;;;;30.95;32.42;101178.34;5013685;28;45688;-85
2022/06/18 00:51:31;;;;;;;;;12.50;11.50;;;;;30.86;32.29;101169.72;5029130;28;45540;-86
2022/06/18 00:54:06;;;;;;;;;10.50;9.75;;;;;30.88;32.21;101183.03;5013777;28;45646;-85
2022/06/18 00:56:38;;;;;;;;;11.50;10.25;;;;;30.84;32.04;101180.78;4995759;28;47178;-86
2022/06/18 00:59:12;;;;;;;;;11.00;11.00;;;;;30.79;32.39;101180.63;5028833;28;45464;-86
2022/06/18 01:01:42;;;;;;;;;11.00;11.00;;;;;30.78;32.38;101173.56;4995900;28;45497;-86
2022/06/18 01:04:32;;;;;;;;;12.00;11.25;;;;;30.72;32.47;101169.06;5028704;28;48723;-86
2022/06/18 01:07:03;;;;;;;;;12.25;11.75;;;;;30.74;32.16;101180.50;5013659;28;46380;-85
2022/06/18 01:09:30;;;;;;;;;11.75;11.50;;;;;30.71;32.63;101172.84;5013631;28;45702;-85
2022/06/18 01:11:56;;;;;;;;;10.50;10.50;;;;;30.69;32.16;101174.94;4995892;28;45518;-86
2022/06/18 01:14:24;;;;;;;;;9.50;9.50;;;;;30.63;32.34;101170.44;5013708;28;45890;-86
2022/06/18 01:16:51;;;;;;;;;10.50;10.50;;;;;30.59;32.49;101161.13;5013775;28;45524;-86
2022/06/18 01:19:26;;;;;;;;;10.75;10.75;;;;;30.62;32.65;101173.34;5013522;28;45709;-85
2022/06/18 01:21:58;;;;;;;;;13.25;11.25;;;;;30.59;32.23;101179.25;5030375;28;45959;-85
2022/06/18 01:24:33;;;;;;;;;10.00;9.00;;;;;30.55;32.60;101167.22;4998848;28;47705;-86
2022/06/18 01:26:59;;;;;;;;;9.75;9.75;;;;;30.51;32.41;101163.28;5016663;28;46330;-85
2022/06/18 01:29:24;;;;;;;;;10.00;9.75;;;;;30.52;32.31;101168.50;5016758;28;45616;-85
2022/06/18 01:31:51;;;;;;;;;10.50;9.25;;;;;30.46;32.41;101155.84;5032068;28;45712;-85
2022/06/18 01:34:17;;;;;;;;;10.50;10.50;;;;;30.47;32.14;101159.38;5016853;28;45575;-84
2022/06/18 01:36:44;;;;;;;;;11.00;11.00;;;;;30.43;32.67;101159.84;4998641;28;47192;-85
2022/06/18 01:39:14;;;;;;;;;11.00;11.00;;;;;30.40;32.73;101157.56;5016569;28;45744;-85
2022/06/18 01:41:52;;;;;;;;;10.00;9.75;;;;;30.34;32.39;101155.75;5016483;28;45519;-85
2022/06/18 01:44:25;;;;;;;;;11.50;10.75;;;;;30.37;32.88;101160.72;5031652;28;48141;-85
2022/06/18 01:46:55;;;;;;;;;12.00;11.50;;;;;30.34;32.74;101150.34;4998536;28;47117;-86
2022/06/18 01:49:26;;;;;;;;;10.00;10.00;;;;;30.31;32.62;101152.69;4998420;28;45592;-85
2022/06/18 01:51:55;;;;;;;;;10.75;10.50;;;;;30.23;32.51;101140.28;4998505;28;45838;-85
2022/06/18 01:54:30;;;;;;;;;12.50;11.75;;;;;30.24;32.43;101143.81;5016264;28;45613;-85
2022/06/18 01:57:02;;;;;;;;;10.00;10.00;;;;;30.21;32.95;101139.69;4998202;28;48126;-85
2022/06/18 01:59:33;;;;;;;;;13.75;11.00;;;;;30.18;32.71;101128.47;5016237;28;45666;-86
2022/06/18 02:01:59;;;;;;;;;10.25;10.25;;;;;30.18;32.80;101128.47;5031934;28;45575;-86
2022/06/18 02:04:27;;;;;;;;;10.50;10.50;;;;;30.20;33.03;101139.91;5031277;28;47772;-86
2022/06/18 02:06:53;;;;;;;;;10.25;10.25;;;;;30.15;33.03;101131.66;5016416;28;45765;-85
2022/06/18 02:09:30;;;;;;;;;9.25;9.25;;;;;30.14;33.26;101130.81;5016107;28;45660;-85
2022/06/18 02:11:58;;;;;;;;;9.75;9.25;;;;;30.12;33.02;101129.41;5016297;28;45567;-86
2022/06/18 02:14:25;;;;;;;;;11.00;11.00;;;;;30.03;33.05;101118.88;5014498;28;48496;-85
2022/06/18 02:16:52;;;;;;;;;10.50;10.50;;;;;30.05;33.09;101125.94;5016063;28;46186;-85
2022/06/18 02:19:18;;;;;;;;;11.00;10.25;;;;;30.05;33.48;101128.66;4998204;28;45986;-85
2022/06/18 02:21:48;;;;;;;;;9.25;9.25;;;;;30.00;33.23;101119.34;5016400;28;45670;-86
2022/06/18 02:30:39;;;;;;;;;11.00;10.00;;;;;29.89;33.35;101109.22;5015672;28;45688;-86
2022/06/18 02:33:17;;;;;;;;;9.00;8.25;;;;;29.91;33.34;101117.13;4997490;28;45668;-85
2022/06/18 02:35:43;;;;;;;;;11.00;10.75;;;;;29.87;33.36;101108.63;5015709;28;45530;-85
2022/06/18 02:38:19;;;;;;;;;8.00;8.00;;;;;29.85;33.34;101101.81;5015524;28;46154;-85
2022/06/18 02:40:44;;;;;;;;;11.00;10.25;;;;;29.82;33.33;101094.94;5015881;28;45847;-85
2022/06/18 02:43:12;;;;;;;;;8.00;7.75;;;;;29.82;33.35;101108.47;4997471;28;45840;-86
2022/06/18 02:45:39;;;;;;;;;9.00;8.25;;;;;29.80;33.45;101098.94;5030720;28;47593;-86
2022/06/18 02:48:05;;;;;;;;;9.00;8.25;;;;;29.76;33.06;101095.00;5015480;28;46277;-86
2022/06/18 02:50:36;;;;;;;;;6.00;6.00;;;;;29.78;33.27;101092.94;5015763;28;45745;-86
2022/06/18 02:53:03;;;;;;;;;8.00;8.00;;;;;29.74;33.20;101092.56;5015812;28;45936;-87
2022/06/18 02:55:37;;;;;;;;;10.00;9.00;;;;;29.69;33.19;101080.75;5015493;28;45710;-86
2022/06/18 02:58:20;;;;;;;;;3.00;3.00;;;;;29.70;33.30;101087.78;4997280;28;46036;-86
2022/06/18 03:00:54;;;;;;;;;9.50;9.50;;;;;29.69;33.38;101083.47;5015455;28;45674;-87
2022/06/18 03:03:25;;;;;;;;;11.75;9.50;;;;;29.66;33.39;101082.03;5015724;28;45521;-87
2022/06/18 03:05:54;;;;;;;;;8.25;8.25;;;;;29.65;33.30;101085.78;4997764;28;47105;-87
2022/06/18 03:08:25;;;;;;;;;9.25;8.50;;;;;29.61;33.70;101080.00;4997114;28;47855;-87
2022/06/18 03:13:38;;;;;;;;;9.50;9.00;;;;;29.57;33.26;101073.38;5015444;28;45687;-87
2022/06/18 03:16:05;;;;;;;;;10.25;10.00;;;;;29.55;33.75;101055.75;5030543;28;46703;-87
2022/06/18 03:18:33;;;;;;;;;13.00;10.00;;;;;29.51;33.79;101051.84;5015394;28;45650;-87
2022/06/18 03:21:21;;;;;;;;;10.00;9.25;;;;;29.47;33.96;101054.16;4997281;28;45687;-87
2022/06/18 03:23:47;;;;;;;;;12.25;11.75;;;;;29.40;33.92;101045.28;5015367;28;45550;-86
2022/06/18 03:26:16;;;;;;;;;12.25;10.75;;;;;29.32;34.11;101036.63;5015285;28;45499;-85
2022/06/18 03:28:42;;;;;;;;;12.50;12.00;;;;;29.35;34.42;101044.31;5014976;28;46073;-87
2022/06/18 03:31:08;;;;;;;;;12.00;11.25;;;;;29.23;34.36;101033.38;5030313;28;45681;-87
2022/06/18 03:33:33;;;;;;;;;10.75;9.75;;;;;29.24;34.75;101040.41;4997084;28;45604;-87
2022/06/18 03:36:00;;;;;;;;;12.00;11.25;;;;;29.26;34.64;101049.09;5015257;28;45919;-87
2022/06/18 03:38:26;;;;;;;;;11.00;10.00;;;;;29.16;34.89;101029.88;5015200;28;46026;-87
2022/06/18 03:40:51;;;;;;;;;12.00;11.00;;;;;29.12;34.60;101026.81;4997393;28;45941;-86
2022/06/18 03:43:22;;;;;;;;;8.50;8.25;;;;;29.16;34.65;101033.41;5014757;28;45571;-87
2022/06/18 03:45:52;;;;;;;;;11.00;10.00;;;;;29.13;34.84;101033.88;5030279;28;48461;-86
2022/06/18 03:48:38;;;;;;;;;12.25;11.00;;;;;29.09;34.49;101029.97;4997360;28;47394;-87
2022/06/18 03:51:04;;;;;;;;;10.00;9.25;;;;;29.10;34.77;101030.75;5034007;28;45650;-86
2022/06/18 03:53:29;;;;;;;;;11.00;9.75;;;;;28.99;34.83;101018.81;5016496;28;45891;-87
2022/06/18 03:55:54;;;;;;;;;11.00;10.50;;;;;28.97;34.74;101026.31;4997011;28;48542;-86
2022/06/18 03:58:20;;;;;;;;;9.75;9.50;;;;;29.06;34.91;101038.47;4997080;28;46981;-86
2022/06/18 04:00:51;;;;;;;;;10.50;10.00;;;;;29.01;34.95;101026.69;4997930;28;45948;-86
2022/06/18 04:03:17;;;;;;;;;11.00;10.00;;;;;28.96;34.91;101023.81;5015661;28;45566;-87
2022/06/18 04:05:42;;;;;;;;;10.75;10.25;;;;;29.03;34.42;101038.94;4997450;28;48594;-86
2022/06/18 04:08:12;;;;;;;;;10.50;10.00;;;;;28.96;35.20;101029.22;4997235;28;46150;-87
2022/06/18 04:10:37;;;;;;;;;11.00;10.25;;;;;28.93;34.70;101025.09;5015162;28;45682;-87
2022/06/18 04:13:03;;;;;;;;;11.25;10.75;;;;;28.95;34.94;101024.88;5030316;28;45883;-87
2022/06/18 04:15:28;;;;;;;;;10.00;10.00;;;;;28.96;34.57;101023.81;4997446;28;47432;-88
2022/06/18 04:17:53;;;;;;;;;12.00;10.75;;;;;28.91;35.05;101020.97;5014986;28;46358;-88
2022/06/18 04:20:29;;;;;;;;;8.75;8.75;;;;;28.95;34.94;101031.09;5014755;28;45794;-87
2022/06/18 04:22:55;;;;;;;;;9.00;8.75;;;;;28.94;34.48;101025.91;5033379;28;45673;-86
2022/06/18 04:25:22;;;;;;;;;10.75;9.00;;;;;28.93;34.42;101026.97;5023136;28;45952;-87
2022/06/18 04:27:48;;;;;;;;;8.75;8.75;;;;;28.84;34.76;101017.47;5023785;28;45560;-87
2022/06/18 04:30:15;;;;;;;;;9.75;9.00;;;;;28.88;34.86;101013.31;5007818;28;45701;-87
2022/06/18 04:32:40;;;;;;;;;8.75;8.50;;;;;28.83;34.92;101005.84;5002084;28;45930;-87
2022/06/18 04:35:09;;;;;;;;;10.50;9.25;;;;;28.76;34.73;100994.31;5031510;28;47358;-87
2022/06/18 04:37:35;;;;;;;;;8.25;8.25;;;;;28.90;34.54;101013.91;5015089;28;46230;-87
2022/06/18 04:40:01;;;;;;;;;9.00;8.50;;;;;28.85;34.78;101006.47;5029781;28;45781;-87
2022/06/18 04:46:01;;;;;;;;;9.00;8.25;;;;;28.82;34.76;101011.50;5012709;28;45667;-87
2022/06/18 04:48:27;;;;;;;;;10.75;10.75;;;;;28.84;34.75;101022.88;5013980;28;45564;-87
2022/06/18 04:50:52;;;;;;;;;8.75;8.25;;;;;28.79;35.06;101013.56;5029500;28;45620;-86
2022/06/18 04:53:18;;;;;;;;;10.50;8.50;;;;;28.79;34.78;101018.13;4996152;28;45872;-86
2022/06/18 04:55:43;;;;;;;;;11.25;10.00;;;;;28.84;34.93;101034.50;4997555;28;47711;-87
2022/06/18 04:58:10;;;;;;;;;10.50;8.75;;;;;28.78;34.69;101022.69;5032378;28;47827;-87
2022/06/18 05:00:35;;;;;;;;;7.75;7.50;;;;;28.86;34.73;101031.59;5017433;28;45800;-86
2022/06/18 05:03:01;;;;;;;;;10.00;8.50;;;;;28.77;34.82;101023.75;5017294;28;45761;-88
2022/06/18 05:05:27;;;;;;;;;8.00;8.00;;;;;28.84;34.41;101026.41;5017464;28;45728;-85
2022/06/18 05:07:53;;;;;;;;;10.75;10.75;;;;;28.88;34.83;101035.69;5017930;28;46290;-83
2022/06/18 05:10:19;;;;;;;;;10.75;10.00;;;;;28.89;35.12;101036.53;5017255;28;45655;-84
2022/06/18 05:16:08;;;;;;;;;9.25;9.25;;;;;28.85;35.04;101025.34;5016749;28;45594;-85
2022/06/18 05:18:35;;;;;;;;;11.50;10.25;;;;;28.82;35.00;101020.41;5017469;28;46530;-85
2022/06/18 05:21:01;;;;;;;;;11.00;11.00;;;;;28.86;34.98;101027.00;5017341;28;45657;-86
2022/06/18 05:23:27;;;;;;;;;11.25;10.25;;;;;28.85;34.85;101016.44;5019370;28;45529;-84
2022/06/18 05:25:57;;;;;;;;;11.75;11.00;;;;;28.90;35.41;101014.72;5001070;28;47616;-84
2022/06/18 05:31:44;;;;;;;;;12.00;11.50;;;;;28.88;35.13;101003.31;5017385;28;45593;-86
2022/06/18 05:34:10;;;;;;;;;9.25;9.00;;;;;28.89;35.51;101009.53;5016561;28;45448;-84
2022/06/18 05:36:36;;;;;;;;;11.00;9.25;;;;;28.92;35.10;101015.34;5016379;28;45671;-83
2022/06/18 05:39:04;;;;;;;;;12.00;11.00;;;;;28.87;35.45;100999.00;5016329;28;46574;-84
2022/06/18 05:41:30;;;;;;;;;11.50;10.50;;;;;28.89;36.04;101004.16;5015885;28;45723;-80
2022/06/18 05:43:56;;;;;;;;;11.75;11.00;;;;;28.86;35.48;100996.50;5015248;28;45797;-80
2022/06/18 05:46:22;;;;;;;;;10.75;10.75;;;;;28.90;35.85;101008.50;5015461;28;46482;-80
2022/06/18 05:48:48;;;;;;;;;9.75;9.25;;;;;28.87;35.92;100996.31;5015492;28;46112;-79
2022/06/18 05:51:13;;;;;;;;;8.75;8.00;;;;;28.90;38.11;101003.94;4996962;28;45650;-81
2022/06/18 05:53:39;;;;;;;;;13.00;13.00;;;;;28.87;40.03;100993.59;5015411;28;45785;-81
2022/06/18 05:56:05;;;;;;;;;11.25;11.25;;;;;28.91;41.70;101002.06;5015746;28;45455;-78
2022/06/18 06:01:56;;;;;;;;;12.25;12.00;;;;;28.82;39.48;101004.22;5016809;28;45678;-85
2022/06/18 06:04:22;;;;;;;;;12.75;12.50;;;;;28.76;39.80;101000.53;5017401;28;45630;-81
2022/06/18 06:06:48;;;;;;;;;10.25;10.25;;;;;28.70;40.50;100990.59;5016465;28;46577;-82
2022/06/18 06:11:28;;;;;;;;;13.25;11.75;;;;;28.69;40.77;100986.22;5016082;28;45611;-80
2022/06/18 06:11:59;;;;;;;;;11.25;11.25;;;;;28.65;42.27;100978.78;5015110;28;45639;-79
2022/06/18 06:14:24;;;;;;;;;13.25;12.75;;;;;28.62;42.41;100974.66;5015386;28;45618;-79
2022/06/18 06:16:50;;;;;;;;;13.25;11.25;;;;;28.63;41.71;100972.78;5015579;28;46503;-80
2022/06/18 06:19:15;;;;;;;;;12.00;12.00;;;;;28.63;40.04;100980.88;5016838;28;45899;-85
2022/06/18 06:21:40;;;;;;;;;14.75;12.50;;;;;28.52;40.95;100965.38;5015943;28;45820;-78
2022/06/18 06:24:06;;;;;;;;;10.25;10.00;;;;;28.59;42.39;100985.06;5015398;28;45453;-79
2022/06/18 06:26:34;;;;;;;;;19.75;19.25;;;;;28.58;41.48;100986.91;5016310;28;45642;-79
2022/06/18 06:32:21;;;;;;;;;11.00;11.00;;;;;28.57;42.14;100985.25;5019441;28;45574;-85
2022/06/18 06:34:47;;;;;;;;;11.00;10.50;;;;;28.57;40.49;100987.13;5017581;28;45707;-83
2022/06/18 06:37:12;;;;;;;;;10.00;10.00;;;;;28.55;40.59;100978.44;5016127;28;46424;-83
2022/06/18 06:39:38;;;;;;;;;11.50;11.00;;;;;28.56;40.24;100985.47;5016017;28;45884;-86
2022/06/18 06:42:03;;;;;;;;;11.50;11.00;;;;;28.54;38.79;100974.94;5016293;28;45588;-84
2022/06/18 06:44:29;;;;;;;;;9.75;9.75;;;;;28.51;39.50;100966.41;5016998;28;45604;-81
2022/06/18 06:46:54;;;;;;;;;11.00;11.00;;;;;28.56;39.79;100975.50;5030819;28;47108;-82
2022/06/18 06:49:20;;;;;;;;;12.00;11.25;;;;;28.56;40.50;100975.50;5015932;28;45556;-81
2022/06/18 06:51:45;;;;;;;;;9.75;9.75;;;;;28.53;39.09;100967.88;5016595;28;45619;-82
2022/06/18 06:54:11;;;;;;;;;12.00;11.25;;;;;28.63;39.69;100983.56;5018945;28;45801;-83
2022/06/18 07:02:43;;;;;;;;;11.00;11.00;;;;;28.69;39.06;100993.50;5020705;28;45668;-83
2022/06/18 07:05:12;;;;;;;;;10.25;9.50;;;;;28.65;38.24;100981.50;5020492;28;45415;-81
2022/06/18 07:07:37;;;;;;;;;11.00;11.00;;;;;28.67;39.35;100976.69;5019639;28;45899;-80
2022/06/18 07:10:03;;;;;;;;;13.00;12.75;;;;;28.74;39.68;100986.44;5019932;28;46249;-80
2022/06/18 07:12:28;;;;;;;;;11.00;10.75;;;;;28.74;38.37;100980.19;5018441;28;45621;-83
2022/06/18 07:14:54;;;;;;;;;11.75;11.75;;;;;28.82;37.91;100989.91;5015336;28;45556;-81
2022/06/18 07:17:22;;;;;;;;;10.75;10.75;;;;;28.86;38.58;100986.56;5014614;28;46550;-81
2022/06/18 07:19:48;;;;;;;;;11.25;10.75;;;;;28.86;38.81;100986.56;5014739;28;46271;-81
2022/06/18 07:22:13;;;;;;;;;12.00;10.25;;;;;28.89;38.70;100985.25;5014382;28;45478;-81
2022/06/18 07:24:40;;;;;;;;;12.25;11.00;;;;;28.91;39.01;100984.00;5015972;28;45510;-81
2022/06/18 07:27:05;;;;;;;;;13.00;11.75;;;;;28.95;38.20;100987.91;5000751;28;47333;-81
2022/06/18 07:32:53;;;;;;;;;14.25;13.75;;;;;29.07;37.92;100988.03;5018254;28;45707;-80
2022/06/18 07:35:25;;;;;;;;;10.75;10.75;;;;;29.11;38.60;100976.56;5019474;28;45707;-82
2022/06/18 07:37:50;;;;;;;;;13.00;12.00;;;;;29.09;37.28;100967.88;5017545;28;45618;-82
2022/06/18 07:40:16;;;;;;;;;11.50;11.25;;;;;29.13;37.83;100969.09;5015482;28;45504;-81
2022/06/18 07:49:48;;;;;;;;;13.00;12.00;;;;;29.30;37.61;100971.22;4994719;28;46623;-83
2022/06/18 07:52:15;;;;;;;;;13.25;12.00;;;;;29.35;37.86;100974.09;4995271;28;45781;-84
2022/06/18 07:54:42;;;;;;;;;12.75;12.50;;;;;29.35;38.29;100961.44;4995275;28;45489;-82
2022/06/18 07:57:08;;;;;;;;;12.50;12.25;;;;;29.47;38.19;100966.91;4995867;28;45518;-84
2022/06/18 08:02:55;;;;;;;;;15.50;13.00;;;;;29.58;37.37;100971.56;4992460;28;45804;-82
2022/06/18 08:05:24;;;;;;;;;13.00;12.75;;;;;29.58;37.74;100952.66;4994191;28;45732;-84
2022/06/18 08:07:50;;;;;;;;;13.25;12.00;;;;;29.63;36.86;100960.09;4993796;28;45526;-83
2022/06/18 08:10:16;;;;;;;;;13.75;13.25;;;;;29.68;36.57;100957.53;4995209;28;45833;-81
2022/06/18 08:12:41;;;;;;;;;14.00;13.25;;;;;29.71;36.57;100957.06;4994072;28;47794;-83
2022/06/18 08:18:29;;;;;;;;;15.00;14.00;;;;;29.82;36.39;100945.50;4995751;28;45458;-85
2022/06/18 08:20:59;;;;;;;;;15.00;14.00;;;;;29.84;36.51;100933.44;4996450;28;46621;-85
2022/06/18 08:23:25;;;;;;;;;14.50;13.00;;;;;29.85;36.91;100928.88;4997038;28;45782;-82
2022/06/18 08:25:50;;;;;;;;;12.25;12.25;;;;;29.93;36.50;100923.16;4997103;28;45604;-81
2022/06/18 08:28:16;;;;;;;;;12.25;12.00;;;;;29.91;36.27;100919.84;4995401;28;45717;-83
2022/06/18 08:30:41;;;;;;;;;12.00;12.00;;;;;30.03;36.46;100937.78;4999011;28;46551;-83
2022/06/18 08:33:07;;;;;;;;;12.50;11.75;;;;;30.09;36.61;100938.75;5000358;28;46330;-82
2022/06/18 08:35:36;;;;;;;;;15.50;14.25;;;;;30.10;36.12;100923.34;5002391;28;45568;-85
2022/06/18 08:38:02;;;;;;;;;14.00;14.00;;;;;30.14;36.31;100925.34;5002856;28;45584;-83
2022/06/18 08:40:52;;;;;;;;;16.00;14.00;;;;;30.21;36.08;100922.56;5002592;28;46353;-83
2022/06/18 08:50:19;;;;;;;;;13.75;12.50;;;;;30.44;35.70;100918.06;5028088;28;45498;-84
2022/06/18 08:53:11;;;;;;;;;13.25;13.25;;;;;30.52;35.66;100918.78;5028206;28;45621;-80
2022/06/18 08:55:44;;;;;;;;;14.00;13.00;;;;;30.54;35.55;100904.00;5016754;28;46193;-85
2022/06/18 09:05:21;;;;;;;;;13.00;13.00;;;;;30.77;34.66;100905.91;5016685;28;45652;-85
2022/06/18 09:08:01;;;;;;;;;14.00;13.00;;;;;30.83;34.05;100894.94;5016146;28;46511;-85
2022/06/18 09:10:44;;;;;;;;;14.75;14.50;;;;;30.89;34.16;100897.75;5016796;28;45705;-83
2022/06/18 09:13:17;;;;;;;;;10.00;10.00;;;;;30.95;34.08;100899.53;5016628;28;45671;-82
2022/06/18 09:15:48;;;;;;;;;13.25;12.75;;;;;30.96;33.86;100883.06;5031741;28;48362;-85
2022/06/18 09:18:19;;;;;;;;;12.25;12.00;;;;;31.05;33.90;100881.66;5016458;28;46051;-85
2022/06/18 09:20:52;;;;;;;;;12.25;11.00;;;;;31.11;33.73;100880.72;5016570;28;45585;-85
2022/06/18 09:23:26;;;;;;;;;14.00;13.25;;;;;31.14;33.25;100876.72;5017110;28;45510;-84
2022/06/18 09:25:54;;;;;;;;;10.50;10.50;;;;;31.19;33.16;100877.66;5017204;28;45526;-82
2022/06/18 09:28:30;;;;;;;;;9.00;9.00;;;;;31.26;33.71;100877.50;5016611;28;46300;-83
2022/06/18 09:31:04;;;;;;;;;11.00;11.00;;;;;31.32;32.86;100883.88;4999016;28;45704;-85
2022/06/18 09:33:32;;;;;;;;;10.50;10.50;;;;;31.37;32.72;100876.66;4998631;28;45821;-83
2022/06/18 09:36:11;;;;;;;;;13.25;11.50;;;;;31.40;32.80;100862.66;5016497;28;46695;-83
2022/06/18 09:38:45;;;;;;;;;10.00;10.00;;;;;31.48;31.95;100856.84;5016327;28;45633;-82
2022/06/18 09:41:22;;;;;;;;;11.75;11.50;;;;;31.55;32.51;100854.84;5016190;28;45710;-85
2022/06/18 09:46:59;;;;;;;;;13.25;10.75;;;;;31.68;31.38;100845.63;5016310;28;45675;-84
2022/06/18 09:49:25;;;;;;;;;10.25;10.25;;;;;31.73;31.01;100842.19;5015868;28;46145;-84
2022/06/18 09:51:57;;;;;;;;;10.25;10.00;;;;;31.82;30.53;100849.69;5016172;28;45794;-86
2022/06/18 09:54:28;;;;;;;;;12.00;10.75;;;;;31.87;30.44;100846.25;5016517;28;45755;-83
2022/06/18 09:56:58;;;;;;;;;10.75;10.75;;;;;31.93;30.18;100831.72;5016105;28;46346;-83
2022/06/18 10:02:53;;;;;;;;;9.50;9.50;;;;;32.08;29.83;100830.09;5015874;28;45692;-81
2022/06/18 10:08:11;;;;;;;;;11.25;11.00;;;;;32.22;29.76;100818.97;5015807;28;45629;-83
2022/06/18 10:10:43;;;;;;;;;11.50;11.00;;;;;32.22;29.01;100805.41;4998284;28;47628;-84
2022/06/18 10:13:15;;;;;;;;;11.75;10.50;;;;;32.32;29.62;100811.00;4997814;28;45685;-85
2022/06/18 10:19:19;;;;;;;;;10.50;10.50;;;;;32.43;28.46;100805.47;5016509;28;46040;-85
2022/06/18 10:22:20;;;;;;;;;12.25;11.50;;;;;32.52;29.79;100792.31;5016375;28;45830;-85
2022/06/18 10:25:23;;;;;;;;;13.00;12.50;;;;;32.63;29.18;100793.28;5017747;28;45606;-84
2022/06/18 10:28:16;;;;;;;;;9.50;9.00;;;;;32.67;28.62;100792.56;5017236;28;45613;-87
2022/06/18 10:30:52;;;;;;;;;9.75;9.50;;;;;32.73;28.92;100791.56;5016576;28;45526;-86
2022/06/18 10:33:21;;;;;;;;;9.75;9.00;;;;;32.78;28.61;100785.38;5016384;28;46189;-85
2022/06/18 10:35:52;;;;;;;;;7.50;7.00;;;;;32.83;28.23;100788.16;5016532;28;45658;-85
2022/06/18 10:38:43;;;;;;;;;9.75;9.00;;;;;32.87;27.10;100790.13;5016343;28;45831;-85
2022/06/18 10:41:27;;;;;;;;;9.50;7.50;;;;;32.94;26.74;100781.78;5016494;28;46635;-85
2022/06/18 10:44:09;;;;;;;;;8.00;7.00;;;;;33.01;26.79;100787.03;5016858;28;46292;-84
2022/06/18 10:46:35;;;;;;;;;6.25;6.25;;;;;33.04;26.59;100765.59;5016243;28;45519;-85
2022/06/18 10:49:04;;;;;;;;;8.50;8.00;;;;;33.11;26.20;100779.00;5015655;28;45547;-84
2022/06/18 10:51:45;;;;;;;;;8.00;7.25;;;;;33.17;25.88;100762.56;5015623;28;46482;-84
2022/06/18 10:54:11;;;;;;;;;8.25;8.25;;;;;33.23;25.77;100763.44;5015228;28;45945;-85
2022/06/18 10:56:51;;;;;;;;;8.25;8.00;;;;;33.27;25.97;100756.41;5015647;28;45759;-85
2022/06/18 10:59:34;;;;;;;;;8.75;7.00;;;;;33.30;25.87;100739.63;5015783;28;45573;-84
2022/06/18 11:02:12;;;;;;;;;10.25;9.50;;;;;33.45;25.90;100750.63;4997474;28;48763;-84
2022/06/18 11:04:39;;;;;;;;;11.75;10.25;;;;;33.48;26.29;100741.13;5015474;28;46255;-84
2022/06/18 11:07:09;;;;;;;;;12.25;11.00;;;;;33.55;26.53;100747.19;5015257;28;45840;-85
2022/06/18 11:09:53;;;;;;;;;10.00;9.25;;;;;33.58;26.29;100742.06;5015543;28;45646;-84
2022/06/18 11:12:32;;;;;;;;;12.00;10.75;;;;;33.64;26.35;100746.47;5014827;28;53093;-84
2022/06/18 11:14:58;;;;;;;;;10.00;10.00;;;;;33.66;26.30;100735.34;5015208;28;45912;-84
2022/06/18 11:17:32;;;;;;;;;8.50;8.00;;;;;33.70;25.99;100728.31;5015859;28;45529;-84
2022/06/18 11:20:16;;;;;;;;;11.00;10.00;;;;;33.68;25.57;100723.16;5015336;28;45608;-84
2022/06/18 11:22:44;;;;;;;;;11.00;10.00;;;;;33.77;25.59;100730.84;5014874;28;46509;-84
2022/06/18 11:25:45;;;;;;;;;9.50;8.00;;;;;33.81;25.64;100719.19;5015042;28;46601;-84
2022/06/18 11:28:36;;;;;;;;;11.00;8.25;;;;;33.86;25.75;100713.78;4997085;28;45988;-83
2022/06/18 11:34:28;;;;;;;;;9.25;9.25;;;;;33.97;25.48;100714.69;5014487;28;45470;-83
2022/06/18 11:36:57;;;;;;;;;9.50;8.50;;;;;34.00;25.24;100698.69;5014921;28;46444;-84
2022/06/18 11:39:35;;;;;;;;;9.50;8.00;;;;;34.05;25.55;100695.16;5014764;28;45536;-84
2022/06/18 11:42:41;;;;;;;;;10.50;10.00;;;;;34.08;25.07;100698.19;5014867;28;45669;-83
2022/06/18 11:49:35;;;;;;;;;9.50;8.25;;;;;34.18;25.42;100689.25;5014633;28;46097;-82
2022/06/18 11:52:08;;;;;;;;;11.00;7.50;;;;;34.23;25.13;100683.03;4996257;28;45583;-84
2022/06/18 11:55:19;;;;;;;;;8.25;8.00;;;;;34.24;25.09;100671.91;4995575;28;45627;-84
2022/06/18 11:57:58;;;;;;;;;7.50;7.50;;;;;34.27;24.84;100668.69;4973075;28;45834;-84
2022/06/18 12:07:13;;;;;;;;;11.50;9.00;;;;;34.47;24.80;100646.19;4972571;28;45717;-83
2022/06/18 12:09:40;;;;;;;;;11.50;9.00;;;;;34.49;25.14;100644.84;4972958;28;45853;-82
2022/06/18 12:12:05;;;;;;;;;10.50;10.25;;;;;34.56;25.24;100641.84;4973053;28;45948;-83
2022/06/18 12:14:55;;;;;;;;;9.25;9.25;;;;;34.59;25.41;100635.06;4972729;28;45822;-84
2022/06/18 12:17:47;;;;;;;;;10.00;10.00;;;;;34.66;25.42;100635.66;4973122;28;45759;-84
2022/06/18 12:20:43;;;;;;;;;12.00;11.00;;;;;34.70;25.88;100626.69;4973010;28;45649;-82
2022/06/18 12:23:21;;;;;;;;;8.50;6.75;;;;;34.70;24.90;100625.88;4972994;28;46142;-84
2022/06/18 12:25:49;;;;;;;;;12.25;10.50;;;;;34.77;25.08;100621.78;4975207;28;45875;-83
2022/06/18 12:28:36;;;;;;;;;12.00;10.00;;;;;34.81;25.18;100628.38;4983567;28;45693;-84
2022/06/18 12:34:23;;;;;;;;;9.25;9.25;;;;;34.91;25.10;100613.94;4994750;28;45694;-83
2022/06/18 12:36:53;;;;;;;;;9.50;9.00;;;;;34.91;25.13;100601.16;4994561;28;45698;-85
2022/06/18 12:39:23;;;;;;;;;9.25;9.25;;;;;34.97;24.67;100596.53;4994663;28;45863;-84
2022/06/18 12:42:11;;;;;;;;;10.25;9.00;;;;;34.95;24.99;100585.91;4994634;28;45620;-84
2022/06/18 12:45:04;;;;;;;;;9.25;8.25;;;;;35.02;25.63;100584.81;4994152;28;46172;-84
2022/06/18 12:51:39;;;;;;;;;10.75;9.75;;;;;35.08;25.31;100572.84;5004120;28;45892;-82
2022/06/18 12:54:25;;;;;;;;;12.50;10.25;;;;;35.12;24.91;100565.75;5010893;28;45615;-82
2022/06/18 12:57:17;;;;;;;;;11.75;9.75;;;;;35.14;25.34;100558.13;5013466;28;46323;-84
2022/06/18 13:00:03;;;;;;;;;11.00;11.00;;;;;35.18;25.65;100562.78;5013723;28;45655;-81
2022/06/18 13:06:02;;;;;;;;;11.00;10.00;;;;;35.23;25.86;100548.34;5013650;28;45610;-83
2022/06/18 13:08:40;;;;;;;;;10.75;9.25;;;;;35.27;25.80;100552.97;5013798;28;45817;-82
2022/06/18 13:11:17;;;;;;;;;10.75;10.00;;;;;35.33;25.92;100543.69;5013614;28;45742;-82
2022/06/18 13:14:17;;;;;;;;;11.00;10.25;;;;;35.37;26.41;100535.78;5013869;28;45690;-83
2022/06/18 13:16:51;;;;;;;;;12.25;11.25;;;;;35.40;25.53;100527.06;4973484;28;46599;-83